FATA weather

Tedderfield Air Park
Tedderfield, Gauteng, South Africa

Public forecast

Using degrees Celsius for public forecast. Weather courtesy of forecast.io.

METAR (pilot weather report)

Report is more than 6 hours old.

Closest report is Rand Airport, 11.8 nm (21.9 km) ENE. Retrieved 2019/05/25 13:00 UTC (9 hours ago):

FAGM 251300Z 14007KT CAVOK 19/07 Q1029

TAF (pilot weather forecast)

Closest forecast is OR Tambo International Airport, 19.7 nm (36.4 km) NE. Retrieved 2019/05/25 18:00 UTC (4 hours ago):

TAF FAOR 251600Z 2518/2624 13007KT CAVOK TX19/2612Z TN06/2605Z BECMG 2600/2602 VRB03KT PROB30 TEMPO 2602/2606 5000 BR NSC BECMG 2609/2611 15007KT